Flight Track Log - Related Links

Times and Time Zones

All times are in EDT time to prevent confusion due to time zone crossing. See the FDX1412 flight status page for this flight to view local times or setup timezone preferences in your user account.

Time Position Orientation Groundspeed Altitude Reporting Facility
EDT Latitude Longitude Course Direction KTS MPH feet Rate Location/Type
Wed 04:39:22 AM 35.0167 -89.9667 180° South 160 184 1,600  Level KMEM
Wed 04:40:10 AM 34.9833 -89.9667 180° South 203 234 3,100 2,667 Climbing KMEM
Wed 04:41:10 AM 34.9667 -89.8833 104° East 277 319 6,400 3,579 Climbing KMEM
Wed 04:42:04 AM 35.0167 -89.8167 48° Northeast 284 327 9,900 3,737 Climbing KMEM
Wed 04:43:04 AM 35.0667 -89.7500 47° Northeast 298 343 13,500 3,185 Climbing KMEM
Wed 04:44:14 AM 35.1489 -89.6892 31° Northeast 312 359 16,800 2,794 Climbing Memphis Center
Wed 04:45:15 AM 35.2322 -89.6414 25° Northeast 333 383 19,600 2,331 Climbing Memphis Center
Wed 04:46:15 AM 35.3231 -89.5983 21° North 347 399 21,500 1,587 Climbing Memphis Center
Wed 04:47:16 AM 35.3967 -89.4839 52° Northeast 422 486 22,800 1,686 Climbing Memphis Center
Wed 04:48:16 AM 35.4669 -89.3483 57° Northeast 459 528 24,900 1,835 Climbing Memphis Center
Wed 04:49:17 AM 35.5406 -89.2103 57° Northeast 476 548 26,500 1,835 Climbing Memphis Center
Wed 04:50:17 AM 35.6169 -89.0669 57° Northeast 495 570 28,600 2,479 Climbing Memphis Center
Wed 04:51:18 AM 35.7050 -88.9033 56° Northeast 499 574 31,500 2,311 Climbing Memphis Center
Wed 04:52:19 AM 35.7781 -88.7642 57° Northeast 494 568 33,300 1,736 Climbing Memphis Center
Wed 04:53:19 AM 35.8517 -88.6261 57° Northeast 489 563 35,000 843 Climbing Memphis Center
Wed 04:54:20 AM 35.9228 -88.4911 57° Northeast 478 550 35,000  Level Memphis Center
Wed 04:55:21 AM 35.9922 -88.3575 57° Northeast 470 541 35,000  Level Memphis Center
Wed 04:56:21 AM 36.0644 -88.2219 57° Northeast 469 540 35,000  Level Memphis Center
Wed 04:57:22 AM 36.1347 -88.0886 57° Northeast 470 541 35,000  Level Memphis Center
Wed 04:58:22 AM 36.2044 -87.9511 58° Northeast 470 541 35,000  Level Memphis Center
Wed 04:59:23 AM 36.2767 -87.8136 57° Northeast 470 541 35,000  Level Memphis Center
Wed 05:05:41 AM 36.7352 -86.9101 57° Northeast 35,000  Level FlightAware ADS-B
Wed 05:06:56 AM 36.8246 -86.7307 58° Northeast 488 562 35,000  Level FlightAware ADS-B
Wed 05:07:26 AM 36.8566 -86.6667 58° Northeast 457 526 35,000  Level FlightAware ADS-B
Wed 05:07:56 AM 36.8888 -86.6016 58° Northeast 488 562 35,000  Level FlightAware ADS-B
Wed 05:08:38 AM 36.9441 -86.4907 58° Northeast 432 497 35,000  Level FlightAware ADS-B
Wed 05:09:11 AM 36.9822 -86.4138 58° Northeast 520 598 35,000  Level FlightAware ADS-B
Wed 05:09:41 AM 37.0184 -86.3404 58° Northeast 490 564 35,000  Level FlightAware ADS-B
Wed 05:10:18 AM 37.0631 -86.2501 58° Northeast 471 542 35,000  Level FlightAware ADS-B
Wed 05:11:16 AM 37.1221 -86.1299 58° Northeast 406 467 35,000  Level FlightAware ADS-B
Wed 05:12:13 AM 37.1970 -85.9770 58° Northeast 420 483 35,000  Level FlightAware ADS-B
Wed 05:12:57 AM 37.2480 -85.8717 59° Northeast 576 663 35,000  Level FlightAware ADS-B
Wed 05:13:38 AM 37.2958 -85.7730 59° Northeast 473 544 35,000  Level FlightAware ADS-B
Wed 05:14:14 AM 37.3367 -85.6889 59° Northeast 391 450 35,000  Level FlightAware ADS-B
Wed 05:14:35 AM 37.3523 -85.6565 239° Southwest 589 678 35,000  Level FlightAware ADS-B
Wed 05:14:45 AM 37.3731 -85.6134 59° Northeast 658 757 35,000  Level FlightAware ADS-B
Wed 05:15:16 AM 37.4084 -85.5403 59° Northeast 461 531 35,000  Level FlightAware ADS-B
Wed 05:15:46 AM 37.4453 -85.4639 59° Northeast 364 419 35,000  Level FlightAware ADS-B
Wed 05:16:16 AM 37.4781 -85.3955 59° Northeast 409 471 35,000  Level FlightAware ADS-B
Wed 05:16:46 AM 37.5137 -85.3212 59° Northeast 526 605 35,000  Level FlightAware ADS-B
Wed 05:17:22 AM 37.5545 -85.2352 59° Northeast 462 532 35,000  Level FlightAware ADS-B
Wed 05:18:01 AM 37.6010 -85.1375 59° Northeast 390 449 35,000  Level FlightAware ADS-B
Wed 05:18:19 AM 37.6217 -85.0941 60° Northeast 491 565 35,000  Level FlightAware ADS-B
Wed 05:19:22 AM 37.6939 -84.9427 59° Northeast 719 827 35,000  Level FlightAware ADS-B
Wed 05:20:22 AM 37.7624 -84.7971 59° Northeast 719 827 35,000  Level FlightAware ADS-B
Wed 05:21:11 AM 37.8204 -84.6732 59° Northeast 598 688 35,000  Level FlightAware ADS-B
Wed 05:22:27 AM 37.8972 -84.5086 59° Northeast 486 559 35,000  Level Indianapolis Center
Wed 05:28:39 AM 38.3243 -83.5809 60° Northeast 515 593 35,000  Level FlightAware ADS-B
Wed 05:29:13 AM 38.3613 -83.4988 60° Northeast 538 619 35,000  Level FlightAware ADS-B
Wed 05:29:52 AM 38.4039 -83.4041 60° Northeast 431 496 35,000  Level FlightAware ADS-B
Wed 05:30:30 AM 38.4449 -83.3129 60° Northeast 443 510 35,000  Level FlightAware ADS-B
Wed 05:31:00 AM 38.4791 -83.2372 60° Northeast 471 542 35,000  Level FlightAware ADS-B
Wed 05:31:31 AM 38.5126 -83.1622 60° Northeast 464 534 35,000  Level FlightAware ADS-B
Wed 05:32:05 AM 38.5503 -83.0774 60° Northeast 494 568 35,000  Level FlightAware ADS-B
Wed 05:32:36 AM 38.5823 -83.0060 60° Northeast 474 545 35,000  Level FlightAware ADS-B
Wed 05:33:13 AM 38.6240 -82.9124 60° Northeast 504 580 35,000  Level FlightAware ADS-B
Wed 05:33:43 AM 38.6573 -82.8371 60° Northeast 452 520 35,000  Level FlightAware ADS-B
Wed 05:34:13 AM 38.6897 -82.7640 60° Northeast 456 525 35,000  Level FlightAware ADS-B
Wed 05:34:44 AM 38.7224 -82.6894 61° Northeast 488 562 35,000  Level FlightAware ADS-B
Wed 05:35:24 AM 38.7675 -82.5868 61° Northeast 475 547 35,000  Level FlightAware ADS-B
Wed 05:35:59 AM 38.8049 -82.5015 61° Northeast 486 559 35,000  Level FlightAware ADS-B
Wed 05:36:29 AM 38.8370 -82.4282 61° Northeast 486 559 35,000  Level FlightAware ADS-B
Wed 05:37:08 AM 38.8808 -82.3283 60° Northeast 454 522 35,000  Level FlightAware ADS-B
Wed 05:38:00 AM 38.9376 -82.1977 61° Northeast 473 544 35,000  Level FlightAware ADS-B
Wed 05:38:41 AM 38.9827 -82.0933 61° Northeast 486 559 35,000  Level FlightAware ADS-B
Wed 05:39:22 AM 39.0267 -81.9916 61° Northeast 487 560 35,000  Level FlightAware ADS-B
Wed 05:40:01 AM 39.0597 -81.9150 61° Northeast 489 563 35,000  Level Cleveland Center
Wed 05:40:38 AM 39.1092 -81.8008 61° Northeast 490 564 35,000  Level Indianapolis Center
Wed 05:41:39 AM 39.1750 -81.6450 61° Northeast 490 564 35,000  Level Indianapolis Center
Wed 05:42:39 AM 39.2414 -81.4906 61° Northeast 490 564 35,000  Level Indianapolis Center
Wed 05:43:40 AM 39.3067 -81.3356 61° Northeast 490 564 35,000  Level Indianapolis Center
Wed 05:44:41 AM 39.3722 -81.1811 61° Northeast 489 563 35,000  Level Indianapolis Center
Wed 05:50:17 AM 39.7348 -80.3030 61° Northeast 35,000  Level FlightAware ADS-B (EGXP / SQZ)
Wed 05:51:29 AM 39.8108 -80.1156 62° Northeast 490 564 35,000  Level FlightAware ADS-B (EGXP / SQZ)
Wed 05:52:42 AM 39.8881 -79.9243 62° Northeast 431 496 35,000  Level FlightAware ADS-B (EGXP / SQZ)
Wed 05:53:21 AM 39.9310 -79.8179 62° Northeast 469 540 35,000  Level FlightAware ADS-B
Wed 05:53:40 AM 39.9666 -79.7295 63° Northeast 469 540 35,000  Level FlightAware ADS-B (KWWD)
Wed 05:54:12 AM 39.9755 -79.7068 63° Northeast 492 566 35,000  Level FlightAware ADS-B (EGXP / SQZ)
Wed 05:54:42 AM 40.0141 -79.6101 62° Northeast 666 766 35,000  Level FlightAware ADS-B (EGXP / SQZ)
Wed 05:55:30 AM 40.0833 -79.4361 62° Northeast 457 526 35,000  Level FlightAware ADS-B (KWWD)
Wed 05:56:31 AM 40.1483 -79.2719 63° Northeast 750 863 35,000  Level FlightAware ADS-B (KWWD)
Wed 05:57:25 AM 40.1890 -79.1682 63° Northeast 516 594 35,000  Level FlightAware ADS-B (CYYZ)
Wed 05:57:55 AM 40.2204 -79.0875 63° Northeast 521 600 35,000  Level FlightAware ADS-B (CYYZ)
Wed 05:58:25 AM 40.2507 -79.0109 63° Northeast 517 595 35,000  Level FlightAware ADS-B (CYYZ)
Wed 05:58:55 AM 40.2832 -78.9273 63° Northeast 514 592 35,000  Level FlightAware ADS-B (CYYZ)
Wed 05:59:25 AM 40.3148 -78.8466 63° Northeast 512 589 35,000  Level FlightAware ADS-B (CYYZ)
Wed 05:59:56 AM 40.3466 -78.7641 63° Northeast 497 572 35,000  Level FlightAware ADS-B (CYYZ)
Wed 06:00:26 AM 40.3779 -78.6830 63° Northeast 497 572 35,000  Level FlightAware ADS-B (CYYZ)
Wed 06:00:56 AM 40.4091 -78.6021 63° Northeast 497 572 35,000  Level FlightAware ADS-B (CYYZ)
Wed 06:01:25 AM 40.4407 -78.5208 63° Northeast 503 579 35,000  Level FlightAware ADS-B (CYYZ)
Wed 06:01:56 AM 40.4719 -78.4393 63° Northeast 497 572 35,000  Level FlightAware ADS-B (CYYZ)
Wed 06:02:25 AM 40.5032 -78.3577 63° Northeast 497 572 35,000  Level FlightAware ADS-B (CYYZ)
Wed 06:02:32 AM 40.5265 -78.2961 63° Northeast 501 577 35,000  Level FlightAware ADS-B (KWWD)
Wed 06:02:56 AM 40.5342 -78.2755 64° Northeast 506 582 35,000  Level FlightAware ADS-B (CYYZ)
Wed 06:03:02 AM 40.5583 -78.2124 63° Northeast 508 585 35,000  Level FlightAware ADS-B (KWWD)
Wed 06:03:26 AM 40.5656 -78.1931 63° Northeast 507 583 35,000  Level FlightAware ADS-B (CYYZ)
Wed 06:03:32 AM 40.5887 -78.1327 63° Northeast 500 575 35,000  Level FlightAware ADS-B (KWWD)
Wed 06:03:55 AM 40.5970 -78.1105 63° Northeast 507 583 35,000  Level FlightAware ADS-B (CYYZ)
Wed 06:04:02 AM 40.6206 -78.0486 63° Northeast 500 575 35,000  Level FlightAware ADS-B (KWWD)
Wed 06:04:26 AM 40.6285 -78.0278 63° Northeast 497 572 35,000  Level FlightAware ADS-B (CYYZ)
Wed 06:04:56 AM 40.6597 -77.9453 63° Northeast 506 582 35,000  Level FlightAware ADS-B (CYYZ)
Wed 06:05:26 AM 40.6906 -77.8627 64° Northeast 506 582 35,000  Level FlightAware ADS-B (CYYZ)
Wed 06:05:55 AM 40.7206 -77.7818 64° Northeast 507 583 35,000  Level FlightAware ADS-B (CYYZ)
Wed 06:06:21 AM 40.7467 -77.7123 64° Northeast 506 582 35,000  Level FlightAware ADS-B (CYYZ)
Wed 06:06:50 AM 40.7773 -77.6306 64° Northeast 500 575 35,000  Level FlightAware ADS-B (CYYZ)
Wed 06:07:21 AM 40.8079 -77.5487 64° Northeast 506 582 35,000  Level FlightAware ADS-B (CYYZ)
Wed 06:07:51 AM 40.8384 -77.4667 64° Northeast 505 581 35,000  Level FlightAware ADS-B (CYYZ)
Wed 06:07:52 AM 40.8563 -77.4188 64° Northeast 484 557 35,000  Level FlightAware ADS-B (KWWD)
Wed 06:08:20 AM 40.8685 -77.3860 64° Northeast 505 581 35,000  Level FlightAware ADS-B (CYYZ)
Wed 06:08:22 AM 40.8866 -77.3367 64° Northeast 484 557 35,000  Level FlightAware ADS-B (KWWD)
Wed 06:08:50 AM 40.8988 -77.3039 64° Northeast 496 571 35,000  Level FlightAware ADS-B (CYYZ)
Wed 06:08:53 AM 40.9179 -77.2519 64° Northeast 490 564 35,000  Level FlightAware ADS-B (KWWD)
Wed 06:09:21 AM 40.9289 -77.2217 64° Northeast 497 572 35,000  Level FlightAware ADS-B (CYYZ)
Wed 06:09:23 AM 40.9479 -77.1695 64° Northeast 499 574 35,000  Level FlightAware ADS-B (KWWD)
Wed 06:09:50 AM 40.9591 -77.1393 64° Northeast 497 572 35,000  Level FlightAware ADS-B (CYYZ)
Wed 06:10:02 AM 40.9872 -77.0620 64° Northeast 498 573 35,000  Level FlightAware ADS-B (KWWD)
Wed 06:10:20 AM 40.9893 -77.0566 64° Northeast 502 578 35,000  Level FlightAware ADS-B (CYYZ)
Wed 06:10:33 AM 41.0180 -76.9780 64° Northeast 501 577 35,000  Level FlightAware ADS-B (KWWD)
Wed 06:10:51 AM 41.0195 -76.9738 64° Northeast 499 574 35,000  Level FlightAware ADS-B (CYYZ)
Wed 06:11:20 AM 41.0422 -76.9119 64° Northeast 499 574 35,000  Level FlightAware ADS-B (CYYZ)
Wed 06:11:50 AM 41.0803 -76.8066 64° Northeast 500 575 35,000  Level FlightAware ADS-B (CYYZ)
Wed 06:12:20 AM 41.1105 -76.7235 64° Northeast 501 577 35,000  Level FlightAware ADS-B (CYYZ)
Wed 06:12:47 AM 41.1300 -76.6680 North 454 522 35,000  Level FlightAware ADS-B
Wed 06:12:50 AM 41.1404 -76.6406 64° Northeast 458 527 35,000  Level FlightAware ADS-B (CYYZ)
Wed 06:13:21 AM 41.1702 -76.5574 64° Northeast 508 585 35,000  Level FlightAware ADS-B (CYYZ)
Wed 06:13:24 AM 41.1710 -76.5550 North 459 528 35,000  Level FlightAware ADS-B
Wed 06:13:50 AM 41.1974 -76.4813 65° Northeast 508 585 35,000  Level FlightAware ADS-B (CYYZ)
Wed 06:13:53 AM 41.2020 -76.4690 North 391 450 35,000  Level FlightAware ADS-B
Wed 06:14:21 AM 41.2291 -76.3928 64° Northeast 546 628 35,000  Level FlightAware ADS-B (CYYZ)
Wed 06:14:51 AM 41.2593 -76.3078 65° Northeast 486 559 35,000  Level FlightAware ADS-B (CYYZ)
Wed 06:14:59 AM 41.2630 -76.2980 North 542 624 35,000  Level FlightAware ADS-B
Wed 06:15:04 AM 41.2892 -76.2240 64° Northeast 251 289 35,000  Level FlightAware ADS-B (KWWD)
Wed 06:15:20 AM 41.2842 -76.2379 65° Northeast 486 559 35,000  Level FlightAware ADS-B (CYYZ)
Wed 06:15:47 AM 41.3153 -76.1502 360° North 491 565 35,000  Level FlightAware ADS-B (CYYZ)
Wed 06:15:59 AM 41.3250 -76.1220 North 408 470 35,000  Level FlightAware ADS-B
Wed 06:16:21 AM 41.3644 -76.0108 63° Northeast 245 282 35,000  Level FlightAware ADS-B (KWWD)
Wed 06:16:45 AM 41.3690 -75.9970 North 556 640 35,000  Level FlightAware ADS-B
Wed 06:16:54 AM 41.3963 -75.9162 66° East 478 550 35,000  Level FlightAware ADS-B (KWWD)
Wed 06:17:43 AM 41.4434 -75.7772 69° East 512 589 35,000  Level FlightAware ADS-B (KWWD)
Wed 06:18:15 AM 41.4739 -75.6872 66° East 505 581 35,000  Level FlightAware ADS-B (KWWD)
Wed 06:18:53 AM 41.5113 -75.5768 65° Northeast 522 601 35,000  Level FlightAware ADS-B (KWWD)
Wed 06:19:24 AM 41.5410 -75.4893 66° East 507 583 35,000  Level FlightAware ADS-B (KWWD)
Wed 06:19:54 AM 41.5693 -75.4048 66° East 519 597 35,000  Level FlightAware ADS-B (KWWD)
Wed 06:20:34 AM 41.6080 -75.2895 66° East 509 586 35,000  Level FlightAware ADS-B (KWWD)
Wed 06:21:34 AM 41.6650 -75.1187 66° East 517 595 35,000  Level FlightAware ADS-B (KWWD)
Wed 06:23:06 AM 41.7354 -74.9058 66° East 509 586 35,000  Level FlightAware ADS-B (KPHL)
Wed 06:23:41 AM 41.7856 -74.7541 66° East 522 601 35,000 -212 Level FlightAware ADS-B (KWWD)
Wed 06:24:31 AM 41.8352 -74.6084 65° Northeast 435 501 34,700 -686 Descending FlightAware ADS-B (KWWD)
Wed 06:24:51 AM 41.8543 -74.5522 65° Northeast 457 526 34,200 -2,038 Descending FlightAware ADS-B (KWWD)
Wed 06:25:24 AM 41.8857 -74.4569 66° East 530 610 32,900 -2,605 Descending FlightAware ADS-B (KWWD)
Wed 06:26:07 AM 41.9243 -74.3395 66° East 571 657 30,900 -2,280 Descending FlightAware ADS-B (KWWD)
Wed 06:27:04 AM 41.9777 -74.1807 66° East 503 579 29,100 -1,015 Descending FlightAware ADS-B (KWWD)
Wed 06:31:38 AM 42.2062 -73.4434 67° East 493 567 25,300 -862 Descending FlightAware ADS-B (KSNC)
Wed 06:32:45 AM 42.2627 -73.2611 67° East 473 544 24,200 -1,208 Descending FlightAware ADS-B (KSNC)
Wed 06:34:07 AM 42.3324 -73.0344 63° Northeast 243 280 22,300 -1,698 Descending FlightAware ADS-B (KSNC)
Wed 06:38:03 AM 42.5236 -72.4090 67° East 458 527 15,200 -2,190 Descending FlightAware ADS-B (KASH)
Wed 06:39:33 AM 42.5899 -72.2032 66° East 405 466 10,400 -2,400 Descending FlightAware ADS-B (KASH)
Wed 06:40:18 AM 42.6168 -72.1206 66° East 392 451 9,800 -1,268 Descending FlightAware ADS-B (KASH)
Wed 06:40:44 AM 42.6316 -72.0749 66° East 389 448 8,900 -2,000 Descending FlightAware ADS-B (KASH)
Wed 06:41:03 AM 42.6421 -72.0434 64° Northeast 272 313 8,300 -2,057 Descending FlightAware ADS-B (KASH)
Wed 06:41:19 AM 42.6507 -72.0174 64° Northeast 325 374 7,700 -1,733 Descending FlightAware ADS-B (KASH)
Wed 06:41:48 AM 42.6656 -71.9707 66° East 306 352 7,000 -1,467 Descending FlightAware ADS-B (KASH)
Wed 06:42:04 AM 42.6743 -71.9445 66° East 304 350 6,600 -1,467 Descending FlightAware ADS-B (KASH)
Wed 06:42:33 AM 42.6888 -71.9000 66° East 286 329 5,900 -1,467 Descending FlightAware ADS-B (KASH)
Wed 06:42:49 AM 42.6972 -71.8739 66° East 282 325 5,500 -1,636 Descending FlightAware ADS-B (KASH)
Wed 06:43:17 AM 42.7119 -71.8298 65° Northeast 283 326 4,700 -1,674 Descending FlightAware ADS-B (KASH)
Wed 06:43:32 AM 42.7198 -71.8070 57° Northeast 256 295 4,300 -1,161 Descending FlightAware ADS-B (KASH)
Wed 06:43:48 AM 42.7300 -71.7864 57° Northeast 263 303 4,100 -522 Descending FlightAware ADS-B (KASH)
Wed 06:44:18 AM 42.7513 -71.7452 55° Northeast 278 320 3,900 -400 Descending FlightAware ADS-B (KASH)
Wed 06:44:33 AM 42.7603 -71.7277 55° Northeast 273 314 3,800 -600 Descending FlightAware ADS-B (KASH)
Wed 06:44:48 AM 42.7696 -71.7093 56° Northeast 273 314 3,600 -1,200 Descending FlightAware ADS-B (KASH)
Wed 06:45:03 AM 42.7797 -71.6906 49° Northeast 108 124 3,200 -1,161 Descending FlightAware ADS-B (KASH)
Wed 06:45:19 AM 42.7888 -71.6724 56° Northeast 261 300 3,000 -818 Descending FlightAware ADS-B (KASH)
Wed 06:45:47 AM 42.8034 -71.6394 59° Northeast 254 292 2,600 -977 Descending FlightAware ADS-B (KASH)
Wed 06:46:02 AM 42.8103 -71.6221 62° Northeast 242 278 2,300 -968 Descending FlightAware ADS-B (KASH)
Wed 06:46:18 AM 42.8172 -71.6039 60° Northeast 217 250 2,100 -391 Descending FlightAware ADS-B (KASH)
Wed 06:46:48 AM 42.8309 -71.5710 52° Northeast 219 252 2,000 -100 Descending FlightAware ADS-B (KASH)
Wed 06:47:18 AM 42.8492 -71.5465 43° Northeast 215 247 2,000 -200 Level FlightAware ADS-B (KASH)
Wed 06:47:48 AM 42.8661 -71.5263 42° Northeast 204 235 1,800 -533 Descending FlightAware ADS-B (KASH)
Wed 06:48:03 AM 42.8738 -71.5171 41° Northeast 198 228 1,600 -652 Descending FlightAware ADS-B (KASH)
Wed 06:48:34 AM 42.8870 -71.5004 43° Northeast 180 207 1,300 -652 Descending FlightAware ADS-B (KASH)
Wed 06:48:49 AM 42.8931 -71.4928 43° Northeast 168 193 1,100 -698 Descending FlightAware ADS-B (KASH)
Wed 06:49:17 AM 42.9049 -71.4783 42° Northeast 144 166 800 -632 Descending FlightAware ADS-B (KASH)
Wed 06:49:27 AM 42.9092 -71.4731 32° Northeast 168 193 700 -649 Descending FlightAware ADS-B (KASH)
Wed 06:49:54 AM 42.9207 -71.4587 43° Northeast 123 142 400 -667 Descending FlightAware ADS-B (KASH)
Wed 06:58:00 AM 42.9167 -71.4333 63° Northeast  Level FlightAware Approximate

Login

Don't have an account? Register now (free) for customized features, flight alerts, and more!